createdAt,value
2022-12-11T00:00:59.370Z,12.48
2022-12-11T00:03:45.039Z,11.10
2022-12-11T00:06:30.519Z,11.05
2022-12-11T00:09:17.211Z,10.77
2022-12-11T00:12:03.206Z,10.20
2022-12-11T00:14:48.713Z,10.88
2022-12-11T00:17:34.191Z,10.85
2022-12-11T00:20:19.517Z,10.98
2022-12-11T00:23:05.552Z,10.88
2022-12-11T00:25:51.066Z,10.13
2022-12-11T00:28:37.064Z,9.80
2022-12-11T00:31:23.282Z,10.05
2022-12-11T00:34:09.718Z,10.70
2022-12-11T00:36:54.957Z,9.75
2022-12-11T00:39:40.368Z,9.43
2022-12-11T00:42:26.011Z,10.38
2022-12-11T00:45:11.681Z,10.00
2022-12-11T00:47:57.197Z,9.65
2022-12-11T00:50:42.805Z,11.50
2022-12-11T00:53:28.132Z,11.85
2022-12-11T00:56:19.454Z,10.55
2022-12-11T00:59:05.025Z,9.25
2022-12-11T01:01:50.532Z,9.27
2022-12-11T01:04:37.203Z,9.18
2022-12-11T01:07:22.732Z,9.73
2022-12-11T01:10:26.777Z,9.75
2022-12-11T01:13:12.469Z,9.25
2022-12-11T01:15:58.283Z,9.07
2022-12-11T01:18:44.147Z,10.15
2022-12-11T01:21:30.271Z,9.52
2022-12-11T01:24:15.850Z,10.68
2022-12-11T01:27:01.455Z,9.23
2022-12-11T01:29:47.061Z,11.02
2022-12-11T01:32:32.849Z,8.80
2022-12-11T01:35:19.139Z,9.25
2022-12-11T01:38:04.781Z,9.32
2022-12-11T01:40:51.297Z,9.48
2022-12-11T01:44:01.642Z,9.90
2022-12-11T01:46:46.874Z,9.27
2022-12-11T01:49:32.552Z,9.70
2022-12-11T01:52:21.560Z,9.02
2022-12-11T01:55:09.347Z,9.45
2022-12-11T01:57:55.251Z,9.13
2022-12-11T02:00:40.762Z,9.73
2022-12-11T02:03:26.296Z,9.35
2022-12-11T02:06:36.254Z,8.80
2022-12-11T02:09:31.612Z,9.32
2022-12-11T02:12:23.061Z,9.25
2022-12-11T02:15:23.441Z,9.25
2022-12-11T02:18:34.280Z,9.07
2022-12-11T02:21:34.239Z,9.30
2022-12-11T02:24:31.611Z,7.88
2022-12-11T02:27:56.600Z,8.13
2022-12-11T02:30:44.245Z,8.82
2022-12-11T02:33:56.235Z,7.03
2022-12-11T02:36:45.620Z,7.40
2022-12-11T02:39:34.249Z,6.75
2022-12-11T02:42:20.978Z,6.63
2022-12-11T02:45:09.208Z,7.43
2022-12-11T02:47:57.496Z,7.20
2022-12-11T02:50:46.424Z,8.43
2022-12-11T02:53:35.408Z,7.70
2022-12-11T02:56:26.761Z,8.30
2022-12-11T02:59:21.525Z,8.52
2022-12-11T03:02:09.436Z,9.05
2022-12-11T03:04:54.770Z,8.50
2022-12-11T03:07:42.636Z,9.38
2022-12-11T03:10:28.436Z,8.75
2022-12-11T03:13:16.882Z,8.68
2022-12-11T03:16:35.934Z,8.40
2022-12-11T03:19:27.287Z,8.43
2022-12-11T03:22:22.640Z,7.82
2022-12-11T03:25:15.604Z,7.50
2022-12-11T03:28:14.322Z,8.25
2022-12-11T03:31:07.190Z,7.75
2022-12-11T03:33:56.305Z,8.20
2022-12-11T03:36:43.659Z,8.00
2022-12-11T03:39:36.951Z,7.68
2022-12-11T03:42:24.721Z,7.97
2022-12-11T03:45:11.349Z,8.38
2022-12-11T03:47:59.885Z,8.05
2022-12-11T03:50:46.899Z,9.02
2022-12-11T03:53:34.417Z,7.32
2022-12-11T03:56:21.963Z,7.82
2022-12-11T03:59:07.488Z,7.03
2022-12-11T04:01:53.175Z,8.35
2022-12-11T04:04:40.649Z,8.13
2022-12-11T04:07:26.145Z,7.55
2022-12-11T04:10:11.385Z,8.38
2022-12-11T04:12:56.902Z,8.98
2022-12-11T04:15:42.503Z,8.95
2022-12-11T04:18:46.453Z,8.50
2022-12-11T04:22:00.921Z,8.88
2022-12-11T04:24:49.305Z,9.23
2022-12-11T04:27:50.170Z,9.70
2022-12-11T04:30:35.967Z,11.30
2022-12-11T04:33:21.474Z,9.63
2022-12-11T04:36:08.132Z,9.40
2022-12-11T04:38:53.327Z,9.30
2022-12-11T04:41:39.155Z,8.70
2022-12-11T04:44:24.691Z,9.55
2022-12-11T04:47:10.186Z,9.55
2022-12-11T04:49:55.678Z,9.38
2022-12-11T04:52:41.702Z,9.35
2022-12-11T04:55:27.384Z,8.88
2022-12-11T04:58:12.824Z,7.95
2022-12-11T05:00:58.450Z,9.02
2022-12-11T05:03:44.292Z,8.00
2022-12-11T05:06:29.370Z,10.10
2022-12-11T05:09:14.897Z,8.63
2022-12-11T05:12:00.353Z,8.65
2022-12-11T05:14:46.028Z,9.23
2022-12-11T05:17:31.681Z,9.30
2022-12-11T05:20:17.900Z,9.38
2022-12-11T05:23:03.250Z,10.23
2022-12-11T05:25:56.341Z,9.57
2022-12-11T05:28:42.045Z,9.20
2022-12-11T05:31:28.188Z,10.10
2022-12-11T05:34:15.202Z,8.40
2022-12-11T05:37:00.265Z,9.60
2022-12-11T05:39:45.701Z,9.45
2022-12-11T05:42:31.156Z,9.90
2022-12-11T05:45:16.811Z,8.70
2022-12-11T05:48:02.473Z,8.27
2022-12-11T05:51:01.698Z,8.88
2022-12-11T05:53:48.767Z,9.07
2022-12-11T05:56:35.944Z,8.75
2022-12-11T05:59:21.720Z,8.85
2022-12-11T06:02:07.382Z,7.22
2022-12-11T06:04:52.801Z,9.88
2022-12-11T06:07:38.319Z,9.32
2022-12-11T06:10:23.701Z,8.63
2022-12-11T06:13:09.313Z,8.80
2022-12-11T06:15:55.477Z,8.88
2022-12-11T06:18:43.263Z,8.60
2022-12-11T06:21:31.129Z,7.95
2022-12-11T06:24:16.683Z,9.20
2022-12-11T06:27:02.274Z,8.48
2022-12-11T06:29:47.495Z,7.82
2022-12-11T06:32:33.311Z,9.30
2022-12-11T06:35:18.596Z,9.48
2022-12-11T06:38:04.065Z,8.15
2022-12-11T06:40:57.265Z,8.27
2022-12-11T06:43:45.667Z,8.48
2022-12-11T06:46:31.875Z,7.60
2022-12-11T06:49:17.530Z,9.27
2022-12-11T06:52:02.966Z,8.48
2022-12-11T06:54:48.880Z,7.78
2022-12-11T06:57:34.537Z,8.63
2022-12-11T07:00:19.970Z,7.63
2022-12-11T07:03:06.169Z,8.48
2022-12-11T07:05:51.637Z,7.20
2022-12-11T07:08:37.490Z,8.20
2022-12-11T07:11:23.169Z,7.57
2022-12-11T07:14:09.262Z,8.73
2022-12-11T07:16:54.647Z,8.35
2022-12-11T07:19:40.816Z,8.25
2022-12-11T07:22:25.879Z,7.80
2022-12-11T07:25:11.872Z,7.82
2022-12-11T07:27:57.773Z,7.45
2022-12-11T07:30:43.440Z,8.07
2022-12-11T07:33:28.773Z,9.45
2022-12-11T07:36:15.393Z,10.23
2022-12-11T07:39:01.500Z,13.82
2022-12-11T07:41:47.154Z,9.55
2022-12-11T07:44:33.075Z,10.85
2022-12-11T07:47:18.486Z,13.70
2022-12-11T07:50:04.250Z,11.88
2022-12-11T07:52:49.551Z,14.35
2022-12-11T07:55:35.075Z,13.93
2022-12-11T07:58:20.722Z,15.93
2022-12-11T08:01:10.675Z,14.02
2022-12-11T08:03:57.297Z,15.90
2022-12-11T08:06:43.719Z,14.52
2022-12-11T08:09:29.359Z,15.55
2022-12-11T08:12:15.288Z,15.38
2022-12-11T08:15:00.934Z,15.30
2022-12-11T08:17:46.289Z,14.93
2022-12-11T08:20:31.888Z,14.95
2022-12-11T08:23:17.465Z,14.40
2022-12-11T08:26:07.861Z,14.75
2022-12-11T08:28:53.950Z,14.98
2022-12-11T08:31:40.597Z,18.20
2022-12-11T08:34:26.369Z,18.83
2022-12-11T08:37:12.258Z,17.67
2022-12-11T08:39:58.152Z,20.00
2022-12-11T08:42:43.695Z,21.45
2022-12-11T08:45:29.232Z,20.08
2022-12-11T08:48:15.218Z,19.90
2022-12-11T08:51:02.251Z,18.65
2022-12-11T08:53:47.821Z,20.00
2022-12-11T08:56:33.522Z,16.13
2022-12-11T08:59:19.196Z,16.13
2022-12-11T09:02:04.570Z,16.73
2022-12-11T09:04:50.565Z,16.67
2022-12-11T09:07:37.717Z,20.92
2022-12-11T09:10:23.300Z,12.85
2022-12-11T09:13:08.542Z,15.85
2022-12-11T09:15:53.847Z,15.93
2022-12-11T09:18:39.807Z,13.88
2022-12-11T09:21:27.679Z,13.63
2022-12-11T09:24:13.643Z,12.40
2022-12-11T09:27:01.506Z,12.02
2022-12-11T09:29:47.450Z,13.07
2022-12-11T09:32:32.994Z,15.45
2022-12-11T09:35:18.994Z,14.75
2022-12-11T09:38:04.841Z,13.15
2022-12-11T09:40:50.285Z,12.63
2022-12-11T09:43:44.443Z,14.90
2022-12-11T09:46:34.352Z,14.90
2022-12-11T09:49:33.903Z,14.18
2022-12-11T09:52:26.769Z,14.65
2022-12-11T09:55:19.600Z,14.00
2022-12-11T09:58:33.939Z,15.48
2022-12-11T10:01:25.715Z,14.50
2022-12-11T10:04:27.302Z,15.32
2022-12-11T10:07:16.170Z,15.73
2022-12-11T10:10:31.808Z,14.98
2022-12-11T10:14:03.512Z,12.48
2022-12-11T10:16:58.926Z,14.10
2022-12-11T10:19:46.010Z,15.13
2022-12-11T10:22:35.133Z,13.38
2022-12-11T10:25:30.107Z,14.68
2022-12-11T10:28:19.609Z,15.43
2022-12-11T10:31:15.132Z,14.70
2022-12-11T10:34:19.624Z,14.68
2022-12-11T10:37:05.924Z,13.20
2022-12-11T10:39:54.681Z,15.57
2022-12-11T10:42:45.563Z,17.48
2022-12-11T10:45:33.951Z,16.25
2022-12-11T10:48:20.579Z,18.30
2022-12-11T10:51:07.846Z,17.98
2022-12-11T10:54:02.640Z,18.60
2022-12-11T10:56:51.867Z,16.63
2022-12-11T10:59:48.260Z,18.60
2022-12-11T11:02:41.948Z,18.35
2022-12-11T11:05:32.404Z,20.33
2022-12-11T11:08:24.975Z,20.25
2022-12-11T11:11:33.812Z,19.38
2022-12-11T11:14:22.941Z,21.90
2022-12-11T11:17:16.587Z,22.45
2022-12-11T11:20:12.107Z,21.05
2022-12-11T11:23:01.854Z,22.38
2022-12-11T11:25:55.120Z,18.33
2022-12-11T11:31:35.584Z,20.77
2022-12-11T11:34:22.367Z,21.10
2022-12-11T11:37:24.512Z,20.30
2022-12-11T11:40:27.474Z,20.13
2022-12-11T11:43:29.088Z,21.48
2022-12-11T11:46:24.494Z,21.67
2022-12-11T11:49:13.204Z,22.13
2022-12-11T11:52:17.628Z,22.45
2022-12-11T11:55:22.044Z,22.60
2022-12-11T11:58:23.168Z,26.00
2022-12-11T12:01:19.975Z,24.60
2022-12-11T12:04:05.580Z,25.38
2022-12-11T12:07:33.325Z,24.83
2022-12-11T12:10:58.544Z,32.28
2022-12-11T12:14:22.743Z,28.42
2022-12-11T12:17:36.156Z,30.08
2022-12-11T12:20:32.367Z,28.70
2022-12-11T12:23:36.321Z,29.27
2022-12-11T12:26:29.980Z,28.25
2022-12-11T12:29:43.522Z,28.30
2022-12-11T12:32:41.495Z,24.98
2022-12-11T12:35:55.390Z,26.67
2022-12-11T12:38:55.984Z,30.23
2022-12-11T12:42:07.956Z,30.10
2022-12-11T12:45:25.258Z,31.70
2022-12-11T12:48:10.747Z,32.67
2022-12-11T12:50:57.065Z,29.25
2022-12-11T12:53:59.449Z,32.40
2022-12-11T12:56:47.099Z,28.25
2022-12-11T12:59:32.810Z,29.77
2022-12-11T13:02:18.263Z,22.08
2022-12-11T13:05:19.415Z,24.95
2022-12-11T13:08:05.991Z,21.65
2022-12-11T13:11:00.923Z,27.35
2022-12-11T13:13:54.976Z,20.80
2022-12-11T13:16:43.173Z,22.10
2022-12-11T13:19:30.794Z,23.05
2022-12-11T13:22:16.227Z,23.98
2022-12-11T13:25:24.248Z,24.23
2022-12-11T13:28:29.781Z,22.77
2022-12-11T13:31:16.042Z,22.52
2022-12-11T13:34:21.032Z,23.45
2022-12-11T13:37:20.481Z,23.92
2022-12-11T13:40:28.204Z,23.58
2022-12-11T13:43:26.956Z,21.50
2022-12-11T13:46:17.341Z,24.08
2022-12-11T13:49:06.876Z,25.30
2022-12-11T13:51:58.311Z,24.08
2022-12-11T13:54:52.547Z,26.85
2022-12-11T13:57:45.695Z,25.85
2022-12-11T14:00:43.805Z,24.48
2022-12-11T14:05:03.231Z,26.50
2022-12-11T14:07:56.566Z,23.65
2022-12-11T14:13:37.644Z,24.38
2022-12-11T14:16:27.780Z,24.10
2022-12-11T14:19:17.022Z,24.08
2022-12-11T14:22:05.534Z,23.00
2022-12-11T14:24:57.487Z,23.45
2022-12-11T14:27:52.296Z,24.13
2022-12-11T14:30:48.480Z,23.35
2022-12-11T14:33:48.342Z,25.55
2022-12-11T14:36:36.047Z,23.55
2022-12-11T14:39:21.569Z,24.13
2022-12-11T14:42:12.418Z,23.42
2022-12-11T14:45:23.822Z,26.92
2022-12-11T14:48:26.547Z,23.05
2022-12-11T14:51:17.334Z,22.85
2022-12-11T14:54:03.863Z,24.00
2022-12-11T14:56:49.492Z,24.83
2022-12-11T14:59:44.711Z,21.35
2022-12-11T15:02:34.755Z,21.73
2022-12-11T15:05:22.505Z,21.67
2022-12-11T15:08:11.967Z,22.05
2022-12-11T15:11:17.096Z,24.30
2022-12-11T15:14:11.194Z,21.98
2022-12-11T15:16:57.831Z,20.13
2022-12-11T15:19:49.087Z,23.52
2022-12-11T15:22:35.265Z,23.13
2022-12-11T15:25:24.141Z,29.77
2022-12-11T15:28:30.435Z,27.40
2022-12-11T15:31:27.795Z,29.42
2022-12-11T15:34:23.899Z,31.50
2022-12-11T15:37:20.061Z,33.70
2022-12-11T15:40:07.343Z,31.17
2022-12-11T15:42:54.861Z,36.78
2022-12-11T15:45:43.422Z,32.45
2022-12-11T15:48:33.247Z,33.60
2022-12-11T15:51:18.769Z,34.70
2022-12-11T15:54:05.618Z,41.03
2022-12-11T15:56:51.029Z,39.70
2022-12-11T15:59:37.365Z,38.38
2022-12-11T16:02:24.475Z,32.55
2022-12-11T16:05:11.249Z,30.30
2022-12-11T16:07:59.984Z,35.80
2022-12-11T16:10:47.923Z,35.97
2022-12-11T16:13:34.714Z,34.95
2022-12-11T16:16:23.842Z,38.30
2022-12-11T16:19:12.673Z,39.20
2022-12-11T16:22:06.431Z,38.30
2022-12-11T16:24:55.629Z,44.63
2022-12-11T16:27:47.332Z,33.25
2022-12-11T16:30:36.782Z,35.92
2022-12-11T16:33:22.872Z,37.90
2022-12-11T16:36:17.052Z,32.83
2022-12-11T16:39:02.750Z,31.73
2022-12-11T16:41:48.202Z,34.90
2022-12-11T16:44:33.643Z,33.65
2022-12-11T16:47:19.144Z,39.10
2022-12-11T16:50:05.270Z,35.90
2022-12-11T16:52:51.036Z,39.15
2022-12-11T16:55:40.408Z,39.00
2022-12-11T16:58:26.120Z,36.20
2022-12-11T17:01:13.568Z,52.75
2022-12-11T17:03:59.360Z,43.92
2022-12-11T17:06:46.380Z,45.55
2022-12-11T17:09:33.014Z,43.35
2022-12-11T17:12:18.800Z,48.85
2022-12-11T17:15:04.499Z,49.88
2022-12-11T17:17:50.088Z,38.78
2022-12-11T17:20:43.242Z,45.42
2022-12-11T17:23:28.747Z,40.97
2022-12-11T17:26:17.009Z,39.55
2022-12-11T17:29:03.830Z,39.72
2022-12-11T17:31:49.472Z,41.05
2022-12-11T17:34:38.437Z,41.35
2022-12-11T17:37:24.689Z,42.90
2022-12-11T17:40:10.396Z,45.75
2022-12-11T17:42:55.999Z,42.97
2022-12-11T17:45:42.936Z,45.65
2022-12-11T17:48:28.557Z,47.30
2022-12-11T17:51:21.145Z,50.10
2022-12-11T17:54:06.852Z,47.72
2022-12-11T17:56:52.498Z,41.78
2022-12-11T17:59:38.009Z,43.33
2022-12-11T18:02:23.610Z,43.80
2022-12-11T18:05:09.459Z,38.60
2022-12-11T18:07:57.920Z,39.35
2022-12-11T18:10:44.019Z,45.05
2022-12-11T18:13:29.403Z,36.28
2022-12-11T18:16:17.456Z,39.20
2022-12-11T18:19:02.983Z,37.33
2022-12-11T18:21:48.946Z,38.65
2022-12-11T18:24:34.333Z,38.80
2022-12-11T18:27:20.054Z,39.05
2022-12-11T18:30:06.592Z,39.53
2022-12-11T18:32:52.383Z,37.85
2022-12-11T18:35:37.831Z,38.45
2022-12-11T18:38:23.959Z,43.42
2022-12-11T18:41:11.669Z,37.75
2022-12-11T18:43:59.121Z,39.45
2022-12-11T18:46:44.659Z,40.72
2022-12-11T18:49:30.278Z,39.55
2022-12-11T18:52:15.348Z,44.00
2022-12-11T18:55:01.108Z,43.70
2022-12-11T18:57:46.613Z,41.67
2022-12-11T19:00:32.040Z,44.30
2022-12-11T19:03:18.487Z,48.58
2022-12-11T19:06:10.700Z,43.85
2022-12-11T19:08:57.663Z,41.20
2022-12-11T19:11:43.697Z,42.13
2022-12-11T19:14:29.760Z,40.65
2022-12-11T19:17:15.190Z,40.95
2022-12-11T19:20:13.618Z,41.80
2022-12-11T19:23:06.817Z,43.05
2022-12-11T19:25:51.984Z,41.03
2022-12-11T19:28:37.648Z,38.25
2022-12-11T19:31:23.805Z,35.97
2022-12-11T19:34:09.348Z,33.65
2022-12-11T19:36:55.099Z,35.67
2022-12-11T19:39:40.776Z,35.63
2022-12-11T19:42:27.029Z,33.97
2022-12-11T19:45:12.705Z,30.80
2022-12-11T19:47:58.504Z,31.38
2022-12-11T19:50:43.792Z,32.47
2022-12-11T19:53:30.247Z,32.83
2022-12-11T19:56:18.224Z,32.13
2022-12-11T19:59:08.844Z,29.05
2022-12-11T20:01:55.244Z,32.20
2022-12-11T20:04:42.136Z,31.30
2022-12-11T20:07:30.936Z,28.52
2022-12-11T20:10:16.697Z,28.65
2022-12-11T20:13:03.408Z,27.98
2022-12-11T20:15:49.173Z,28.42
2022-12-11T20:18:34.885Z,24.92
2022-12-11T20:21:23.473Z,24.63
2022-12-11T20:24:10.668Z,25.92
2022-12-11T20:26:57.315Z,25.20
2022-12-11T20:29:42.716Z,24.83
2022-12-11T20:32:29.074Z,24.05
2022-12-11T20:35:14.950Z,24.50
2022-12-11T20:38:00.654Z,24.30
2022-12-11T20:40:46.842Z,23.63
2022-12-11T20:43:32.679Z,24.17
2022-12-11T20:46:20.410Z,24.80
2022-12-11T20:49:12.942Z,23.52
2022-12-11T20:51:59.893Z,22.58
2022-12-11T20:54:47.169Z,25.80
2022-12-11T20:57:32.488Z,22.75
2022-12-11T21:00:18.576Z,21.27
2022-12-11T21:03:07.908Z,22.10
2022-12-11T21:05:53.672Z,19.75
2022-12-11T21:08:39.202Z,19.20
2022-12-11T21:11:25.335Z,19.63
2022-12-11T21:14:11.828Z,19.08
2022-12-11T21:16:58.493Z,20.30
2022-12-11T21:19:46.396Z,21.13
2022-12-11T21:22:31.882Z,19.42
2022-12-11T21:25:17.956Z,21.45
2022-12-11T21:28:04.351Z,22.35
2022-12-11T21:30:50.443Z,24.92
2022-12-11T21:33:41.894Z,19.75
2022-12-11T21:36:27.866Z,20.88
2022-12-11T21:39:13.967Z,19.95
2022-12-11T21:42:00.775Z,20.42
2022-12-11T21:47:56.029Z,20.42
2022-12-11T21:50:42.872Z,23.27
2022-12-11T21:53:28.491Z,21.95
2022-12-11T21:56:18.081Z,22.45
2022-12-11T21:59:07.030Z,22.42
2022-12-11T22:01:55.801Z,22.00
2022-12-11T22:04:42.097Z,21.33
2022-12-11T22:07:28.458Z,22.30
2022-12-11T22:10:14.757Z,23.23
2022-12-11T22:13:00.052Z,22.05
2022-12-11T22:15:46.247Z,23.08
2022-12-11T22:18:31.468Z,22.40
2022-12-11T22:21:17.210Z,20.80
2022-12-11T22:24:02.665Z,21.95
2022-12-11T22:26:48.302Z,22.42
2022-12-11T22:29:34.859Z,20.38
2022-12-11T22:32:20.363Z,20.52
2022-12-11T22:35:06.426Z,18.60
2022-12-11T22:37:52.218Z,18.63
2022-12-11T22:40:41.765Z,18.88
2022-12-11T22:43:27.778Z,18.52
2022-12-11T22:46:19.303Z,18.30
2022-12-11T22:49:05.956Z,15.38
2022-12-11T22:51:51.221Z,16.05
2022-12-11T22:54:39.837Z,15.70
2022-12-11T22:57:25.604Z,14.75
2022-12-11T23:00:14.154Z,15.05
2022-12-11T23:03:00.060Z,14.75
2022-12-11T23:05:45.812Z,14.15
2022-12-11T23:08:31.598Z,13.20
2022-12-11T23:11:26.781Z,13.95
2022-12-11T23:14:16.103Z,11.80
2022-12-11T23:17:01.811Z,12.30
2022-12-11T23:19:47.518Z,11.77
2022-12-11T23:22:33.156Z,11.50
2022-12-11T23:25:19.123Z,10.43
2022-12-11T23:28:04.741Z,11.20
2022-12-11T23:30:50.196Z,11.07
2022-12-11T23:33:35.895Z,13.13
2022-12-11T23:36:21.615Z,10.40
2022-12-11T23:39:07.406Z,12.90
2022-12-11T23:41:52.633Z,10.68
2022-12-11T23:44:38.205Z,10.18
2022-12-11T23:47:23.824Z,11.00
2022-12-11T23:50:09.997Z,11.25
2022-12-11T23:52:55.611Z,11.32
2022-12-11T23:55:44.873Z,9.93
2022-12-11T23:58:30.274Z,9.68
